Time;durP1;ratioP1;P1;durP2;ratioP2;P2;SDS_P1;SDS_P2;PMS_P1;PMS_P2;Temp;Humidity;BMP_temperature;BMP_pressure;BME280_temperature;BME280_humidity;BME280_pressure;Samples;Min_cycle;Max_cycle;Signal;HPM_P1;HPM_P2
2023/05/14 00:01:15;;;;;;;7.50;5.15;;;10.60;99.90;;;;;;5017440;28;20130;-91
2023/05/14 00:03:41;;;;;;;9.82;5.82;;;10.60;99.90;;;;;;5020123;28;20029;-91
2023/05/14 00:06:07;;;;;;;8.50;5.68;;;10.60;99.90;;;;;;5021507;28;20068;-91
2023/05/14 00:08:33;;;;;;;10.18;6.38;;;10.60;99.90;;;;;;5019575;28;20034;-90
2023/05/14 00:10:59;;;;;;;7.72;5.75;;;10.50;99.90;;;;;;5026642;28;20042;-90
2023/05/14 00:13:25;;;;;;;8.13;5.65;;;10.50;99.90;;;;;;5018921;28;20038;-90
2023/05/14 00:15:50;;;;;;;8.35;5.90;;;10.50;99.90;;;;;;5020333;28;20026;-89
2023/05/14 00:18:16;;;;;;;9.93;6.47;;;10.50;99.90;;;;;;5020837;28;20489;-89
2023/05/14 00:20:42;;;;;;;8.40;5.70;;;10.50;99.90;;;;;;5014908;28;20085;-90
2023/05/14 00:23:07;;;;;;;11.18;6.63;;;10.50;99.90;;;;;;5021089;28;20032;-92
2023/05/14 00:25:33;;;;;;;9.23;6.35;;;10.50;99.90;;;;;;5022851;28;20034;-91
2023/05/14 00:27:58;;;;;;;11.13;6.88;;;10.50;99.90;;;;;;5024797;28;20044;-91
2023/05/14 00:30:24;;;;;;;10.57;6.68;;;10.40;99.90;;;;;;5016576;28;20126;-90
2023/05/14 00:32:49;;;;;;;10.20;6.15;;;10.40;99.90;;;;;;5026881;28;20049;-91
2023/05/14 00:35:15;;;;;;;9.73;6.45;;;10.50;99.90;;;;;;5016573;28;20094;-91
2023/05/14 00:37:41;;;;;;;13.15;6.90;;;10.40;99.90;;;;;;5019831;28;20478;-90
2023/05/14 00:40:07;;;;;;;9.40;6.30;;;10.40;99.90;;;;;;5019681;28;20101;-90
2023/05/14 00:42:33;;;;;;;10.00;6.70;;;10.40;99.90;;;;;;5017100;28;20068;-90
2023/05/14 00:44:59;;;;;;;9.98;6.47;;;10.40;99.90;;;;;;5018195;28;20403;-90
2023/05/14 00:47:25;;;;;;;11.75;6.65;;;10.40;99.90;;;;;;5017664;28;20022;-90
2023/05/14 00:49:50;;;;;;;10.90;6.20;;;10.40;99.90;;;;;;5021926;28;20078;-91
2023/05/14 00:52:17;;;;;;;10.63;6.38;;;10.40;99.90;;;;;;5021808;28;20061;-90
2023/05/14 00:54:45;;;;;;;9.90;6.63;;;10.40;99.90;;;;;;5023461;28;20034;-91
2023/05/14 00:57:11;;;;;;;10.65;6.50;;;10.40;99.90;;;;;;5027339;28;20038;-90
2023/05/14 00:59:39;;;;;;;10.70;6.88;;;10.50;99.90;;;;;;5022289;28;20037;-91
2023/05/14 01:02:05;;;;;;;10.75;6.68;;;10.40;99.90;;;;;;5030339;28;20049;-81
2023/05/14 01:04:31;;;;;;;9.45;6.43;;;10.50;99.90;;;;;;5004247;28;20030;-81
2023/05/14 01:07:15;;;;;;;9.32;6.45;;;10.50;99.90;;;;;;5013581;28;20041;-80
2023/05/14 01:09:50;;;;;;;10.98;6.97;;;10.50;99.90;;;;;;5017371;28;20497;-81
2023/05/14 01:12:20;;;;;;;11.70;7.07;;;10.40;99.90;;;;;;5014503;28;20112;-80
2023/05/14 01:14:53;;;;;;;11.13;7.15;;;10.50;99.90;;;;;;5009069;28;20651;-79
2023/05/14 01:17:21;;;;;;;12.18;8.07;;;10.50;99.90;;;;;;5010791;28;20042;-81
2023/05/14 01:19:47;;;;;;;12.35;6.93;;;10.40;99.90;;;;;;5013538;28;20034;-81
2023/05/14 01:22:13;;;;;;;10.90;7.13;;;10.50;99.90;;;;;;5017492;28;20034;-81
2023/05/14 01:24:39;;;;;;;10.90;6.80;;;10.40;99.90;;;;;;5018221;28;20042;-80
2023/05/14 01:27:28;;;;;;;10.95;6.72;;;10.50;99.90;;;;;;5016469;28;20034;-80
2023/05/14 01:30:13;;;;;;;10.98;7.30;;;10.50;99.90;;;;;;4996185;28;20118;-80
2023/05/14 01:32:40;;;;;;;11.98;6.60;;;10.50;99.90;;;;;;5015323;28;20609;-80
2023/05/14 01:35:08;;;;;;;10.10;7.25;;;10.50;99.90;;;;;;5010195;28;20111;-80
2023/05/14 01:37:35;;;;;;;13.40;8.40;;;10.50;99.90;;;;;;5013684;28;20505;-81
2023/05/14 01:40:02;;;;;;;12.18;7.70;;;10.50;99.90;;;;;;5014103;28;20060;-81
2023/05/14 01:42:28;;;;;;;12.07;7.47;;;10.50;99.90;;;;;;5004397;28;20474;-81
2023/05/14 01:44:55;;;;;;;11.40;7.05;;;10.60;99.90;;;;;;5015953;28;20052;-80
2023/05/14 01:47:20;;;;;;;11.60;8.23;;;10.50;99.90;;;;;;5013338;28;20065;-80
2023/05/14 01:49:46;;;;;;;12.65;7.38;;;10.50;99.90;;;;;;5017682;28;20068;-81
2023/05/14 01:52:11;;;;;;;12.15;7.45;;;10.60;99.90;;;;;;5018411;28;20057;-81
2023/05/14 01:54:37;;;;;;;12.50;7.57;;;10.50;99.90;;;;;;5015767;28;20092;-81
2023/05/14 01:57:02;;;;;;;11.32;7.07;;;10.50;99.90;;;;;;5012892;28;20036;-81
2023/05/14 01:59:28;;;;;;;10.52;7.28;;;10.60;99.90;;;;;;5011677;28;20113;-81
2023/05/14 02:01:54;;;;;;;9.95;7.05;;;10.50;99.90;;;;;;5009897;28;20073;-81
2023/05/14 02:04:20;;;;;;;11.82;7.97;;;10.60;99.90;;;;;;5006828;28;20077;-81
2023/05/14 02:06:46;;;;;;;10.15;7.00;;;10.50;99.90;;;;;;4997650;28;21950;-82
2023/05/14 02:09:11;;;;;;;11.57;7.68;;;10.50;99.90;;;;;;5015832;28;20034;-79
2023/05/14 02:11:37;;;;;;;11.48;7.68;;;10.50;99.90;;;;;;5012987;28;20088;-80
2023/05/14 02:14:03;;;;;;;12.57;7.22;;;10.50;99.90;;;;;;5012688;28;20034;-81
2023/05/14 02:16:28;;;;;;;12.27;7.10;;;10.50;99.90;;;;;;5008434;28;20060;-80
2023/05/14 02:18:54;;;;;;;12.15;7.15;;;10.50;99.90;;;;;;5014860;28;20041;-80
2023/05/14 02:21:19;;;;;;;12.05;8.20;;;10.50;99.90;;;;;;5015013;28;20037;-80
2023/05/14 02:23:47;;;;;;;12.20;7.53;;;10.50;99.90;;;;;;5015508;28;20038;-81
2023/05/14 02:26:12;;;;;;;10.45;6.97;;;10.50;99.90;;;;;;5012527;28;20065;-80
2023/05/14 02:28:38;;;;;;;11.68;7.40;;;10.50;99.90;;;;;;5015358;28;20108;-81
2023/05/14 02:31:04;;;;;;;10.23;6.90;;;10.50;99.90;;;;;;5011581;28;20117;-81
2023/05/14 02:33:29;;;;;;;11.85;7.60;;;10.60;99.90;;;;;;5010765;28;20415;-81
2023/05/14 02:35:55;;;;;;;18.75;8.70;;;10.60;99.90;;;;;;5009950;28;20146;-81
2023/05/14 02:38:21;;;;;;;13.40;8.13;;;10.60;99.90;;;;;;5013688;28;20034;-80
2023/05/14 02:40:47;;;;;;;13.68;8.35;;;10.60;99.90;;;;;;5015780;28;20045;-81
2023/05/14 02:43:13;;;;;;;14.65;9.10;;;10.50;99.90;;;;;;5011724;28;20030;-81
2023/05/14 02:45:38;;;;;;;14.77;8.57;;;10.50;99.90;;;;;;5011857;28;20034;-80
2023/05/14 02:48:04;;;;;;;13.18;8.13;;;10.40;99.90;;;;;;5011072;28;20053;-81
2023/05/14 02:50:29;;;;;;;13.25;7.93;;;10.40;99.90;;;;;;4996667;28;20041;-80
2023/05/14 02:52:55;;;;;;;12.52;7.72;;;10.40;99.90;;;;;;5012614;28;20030;-81
2023/05/14 02:55:21;;;;;;;14.07;8.40;;;10.40;99.90;;;;;;5012487;28;20053;-81
2023/05/14 02:57:47;;;;;;;12.90;8.13;;;10.40;99.90;;;;;;5014649;28;20030;-81
2023/05/14 03:00:13;;;;;;;14.80;8.00;;;10.30;99.90;;;;;;4992694;28;20025;-81
2023/05/14 03:02:38;;;;;;;12.93;8.52;;;10.30;99.90;;;;;;5015381;28;20041;-81
2023/05/14 03:05:04;;;;;;;14.02;8.50;;;10.30;99.90;;;;;;5013556;28;20103;-81
2023/05/14 03:07:30;;;;;;;14.00;8.20;;;10.30;99.90;;;;;;5015485;28;20055;-81
2023/05/14 03:09:55;;;;;;;11.32;7.65;;;10.30;99.90;;;;;;4996304;28;20383;-81
2023/05/14 03:12:21;;;;;;;14.15;8.55;;;10.30;99.90;;;;;;5010565;28;20040;-81
2023/05/14 03:14:46;;;;;;;11.35;7.13;;;10.30;99.90;;;;;;5011374;28;20034;-82
2023/05/14 03:17:12;;;;;;;12.75;7.45;;;10.30;99.90;;;;;;5007147;28;20037;-82
2023/05/14 03:19:38;;;;;;;15.20;7.45;;;10.20;99.90;;;;;;5011971;28;20530;-81
2023/05/14 03:22:03;;;;;;;12.75;8.27;;;10.20;99.90;;;;;;5008853;28;20029;-81
2023/05/14 03:24:30;;;;;;;13.95;8.02;;;10.20;99.90;;;;;;5013424;28;20034;-81
2023/05/14 03:26:56;;;;;;;11.85;8.02;;;10.10;99.90;;;;;;5013283;28;20038;-82
2023/05/14 03:29:21;;;;;;;11.95;8.13;;;10.10;99.90;;;;;;5007666;28;20276;-80
2023/05/14 03:31:47;;;;;;;13.77;7.72;;;10.10;99.90;;;;;;5008394;28;20050;-81
2023/05/14 03:34:12;;;;;;;9.73;7.22;;;10.10;99.90;;;;;;5013865;28;20041;-81
2023/05/14 03:36:38;;;;;;;13.55;7.82;;;10.00;99.90;;;;;;5013743;28;20033;-81
2023/05/14 03:39:08;;;;;;;9.50;6.82;;;10.10;99.90;;;;;;5010307;28;20089;-81
2023/05/14 03:41:34;;;;;;;10.10;7.18;;;10.10;99.90;;;;;;5012595;28;20020;-81
2023/05/14 03:44:00;;;;;;;13.00;7.55;;;10.00;99.90;;;;;;4996212;28;20038;-81
2023/05/14 03:46:26;;;;;;;11.20;7.53;;;10.00;99.90;;;;;;5010877;28;20030;-81
2023/05/14 03:48:51;;;;;;;12.32;7.70;;;10.00;99.90;;;;;;5011963;28;20660;-81
2023/05/14 03:51:17;;;;;;;11.48;7.30;;;10.00;99.90;;;;;;5009414;28;20045;-81
2023/05/14 03:53:43;;;;;;;13.20;8.80;;;10.00;99.90;;;;;;5006999;28;20048;-81
2023/05/14 03:56:08;;;;;;;13.00;8.23;;;10.00;99.90;;;;;;5010517;28;20041;-81
2023/05/14 03:58:34;;;;;;;13.57;8.27;;;10.00;99.90;;;;;;5017922;28;20378;-81
2023/05/14 04:01:00;;;;;;;12.43;7.63;;;10.00;99.90;;;;;;5014477;28;20049;-80
2023/05/14 04:03:25;;;;;;;12.02;7.72;;;10.00;99.90;;;;;;5012354;28;21537;-81
2023/05/14 04:05:51;;;;;;;12.32;7.65;;;9.90;99.90;;;;;;5009647;28;20030;-81
2023/05/14 04:08:16;;;;;;;11.05;7.00;;;9.90;99.90;;;;;;5007361;28;20105;-82
2023/05/14 04:10:42;;;;;;;11.07;7.40;;;9.90;99.90;;;;;;5010718;28;20658;-82
2023/05/14 04:13:08;;;;;;;13.05;8.00;;;10.00;99.90;;;;;;5011541;28;20034;-81
2023/05/14 04:15:34;;;;;;;13.10;7.82;;;9.90;99.90;;;;;;5013018;28;20042;-81
2023/05/14 04:18:00;;;;;;;12.52;7.65;;;9.90;99.90;;;;;;5013036;28;20037;-81
2023/05/14 04:20:26;;;;;;;11.27;7.30;;;9.90;99.90;;;;;;5015063;28;20037;-81
2023/05/14 04:22:53;;;;;;;11.07;7.38;;;10.00;99.90;;;;;;5010329;28;20029;-81
2023/05/14 04:25:19;;;;;;;11.63;8.02;;;10.00;99.90;;;;;;5016407;28;20554;-81
2023/05/14 04:27:44;;;;;;;13.68;7.95;;;10.00;99.90;;;;;;5014422;28;20026;-81
2023/05/14 04:30:11;;;;;;;13.30;8.15;;;10.00;99.90;;;;;;5011193;28;20034;-80
2023/05/14 04:32:36;;;;;;;14.07;7.55;;;10.00;99.90;;;;;;5006360;28;20042;-81
2023/05/14 04:35:03;;;;;;;12.52;7.78;;;10.00;99.90;;;;;;5013483;28;20034;-81
2023/05/14 04:37:29;;;;;;;11.02;7.32;;;10.00;99.90;;;;;;5014115;28;20030;-82
2023/05/14 04:39:55;;;;;;;12.52;7.80;;;10.00;99.90;;;;;;5017846;28;20034;-81
2023/05/14 04:42:21;;;;;;;13.07;7.60;;;10.00;99.90;;;;;;5011215;28;20092;-81
2023/05/14 04:44:46;;;;;;;14.48;7.72;;;10.10;99.90;;;;;;5012415;28;20029;-81
2023/05/14 04:47:12;;;;;;;12.05;8.45;;;10.10;99.90;;;;;;5013106;28;20108;-82
2023/05/14 04:49:37;;;;;;;10.68;7.55;;;10.10;99.90;;;;;;5014035;28;20153;-81
2023/05/14 04:52:05;;;;;;;15.30;8.52;;;10.10;99.90;;;;;;5016743;28;20157;-81
2023/05/14 04:54:30;;;;;;;16.45;7.75;;;10.10;99.90;;;;;;5012777;28;20057;-81
2023/05/14 04:56:56;;;;;;;11.60;7.70;;;10.10;99.90;;;;;;5017696;28;20029;-80
2023/05/14 04:59:21;;;;;;;17.95;9.43;;;10.10;99.90;;;;;;5008733;28;20102;-81
2023/05/14 05:01:47;;;;;;;15.13;9.02;;;10.10;99.90;;;;;;5014977;28;20022;-81
2023/05/14 05:04:12;;;;;;;11.82;8.02;;;10.20;99.90;;;;;;5012128;28;20032;-81
2023/05/14 05:06:38;;;;;;;13.32;8.00;;;10.20;99.90;;;;;;5015230;28;20029;-81
2023/05/14 05:09:04;;;;;;;11.95;7.35;;;10.20;99.90;;;;;;5010260;28;20553;-82
2023/05/14 05:11:29;;;;;;;12.68;8.20;;;10.20;99.90;;;;;;5013714;28;20029;-81
2023/05/14 05:13:55;;;;;;;15.27;8.40;;;10.20;99.90;;;;;;5010442;28;20532;-81
2023/05/14 05:16:20;;;;;;;14.07;8.88;;;10.20;99.90;;;;;;5010558;28;20065;-80
2023/05/14 05:18:46;;;;;;;13.30;7.70;;;10.20;99.90;;;;;;5013273;28;20034;-81
2023/05/14 05:21:12;;;;;;;18.45;10.48;;;10.20;99.90;;;;;;5009481;28;20030;-81
2023/05/14 05:23:40;;;;;;;14.10;8.50;;;10.20;99.90;;;;;;5010820;28;20032;-81
2023/05/14 05:26:06;;;;;;;12.95;9.00;;;10.30;99.90;;;;;;5017669;28;20402;-82
2023/05/14 05:28:32;;;;;;;15.13;8.43;;;10.20;99.90;;;;;;5010118;28;20043;-81
2023/05/14 05:30:57;;;;;;;13.73;8.88;;;10.30;99.90;;;;;;5011674;28;20060;-81
2023/05/14 05:33:23;;;;;;;13.75;9.00;;;10.30;99.90;;;;;;5012003;28;20034;-82
2023/05/14 05:35:49;;;;;;;14.50;9.35;;;10.30;99.90;;;;;;5013338;28;20042;-81
2023/05/14 05:38:17;;;;;;;13.80;8.65;;;10.30;99.90;;;;;;5009486;28;20038;-81
2023/05/14 05:40:42;;;;;;;16.75;9.48;;;10.30;99.90;;;;;;5015410;28;20030;-82
2023/05/14 05:43:08;;;;;;;14.77;9.43;;;10.30;99.90;;;;;;5013307;28;20040;-81
2023/05/14 05:45:34;;;;;;;14.48;8.77;;;10.40;99.90;;;;;;5013096;28;20140;-81
2023/05/14 05:47:59;;;;;;;14.73;8.93;;;10.40;99.90;;;;;;5009113;28;20038;-81
2023/05/14 05:50:25;;;;;;;14.93;8.00;;;10.40;99.90;;;;;;5015653;28;20046;-81
2023/05/14 05:52:51;;;;;;;14.40;8.80;;;10.40;99.90;;;;;;5012752;28;20033;-81
2023/05/14 05:55:18;;;;;;;15.10;8.25;;;10.50;99.90;;;;;;5014163;28;20017;-82
2023/05/14 05:57:43;;;;;;;15.45;9.02;;;10.50;99.90;;;;;;5011573;28;20509;-81
2023/05/14 06:00:12;;;;;;;14.57;9.45;;;10.50;99.90;;;;;;5009447;28;20053;-81
2023/05/14 06:02:39;;;;;;;16.15;9.15;;;10.60;99.90;;;;;;5010856;28;20104;-81
2023/05/14 06:05:05;;;;;;;15.80;9.05;;;10.60;99.90;;;;;;5009818;28;20103;-81
2023/05/14 06:07:31;;;;;;;15.95;9.18;;;10.60;99.90;;;;;;4989957;28;20398;-80
2023/05/14 06:09:56;;;;;;;13.63;8.40;;;10.60;99.90;;;;;;5011872;28;20037;-81
2023/05/14 06:12:22;;;;;;;16.85;9.30;;;10.60;99.90;;;;;;5006021;28;20104;-80
2023/05/14 06:14:48;;;;;;;15.93;8.52;;;10.60;99.90;;;;;;5014483;28;20034;-81
2023/05/14 06:17:13;;;;;;;14.02;8.88;;;10.60;99.90;;;;;;5013080;28;20038;-81
2023/05/14 06:19:39;;;;;;;15.13;8.50;;;10.70;99.90;;;;;;5010815;28;20129;-81
2023/05/14 06:22:05;;;;;;;13.90;8.30;;;10.80;99.90;;;;;;5007547;28;20064;-81
2023/05/14 06:24:30;;;;;;;17.00;8.75;;;10.80;99.90;;;;;;5007438;28;20034;-81
2023/05/14 06:26:56;;;;;;;16.92;9.57;;;10.80;99.90;;;;;;5011555;28;20813;-81
2023/05/14 06:29:21;;;;;;;18.38;10.02;;;10.60;99.90;;;;;;5011070;28;20065;-81
2023/05/14 06:31:47;;;;;;;18.15;10.00;;;10.60;99.90;;;;;;5007925;28;20054;-80
2023/05/14 06:34:13;;;;;;;17.95;9.70;;;10.50;99.90;;;;;;5010473;28;20045;-81
2023/05/14 06:36:39;;;;;;;17.05;9.40;;;10.50;99.90;;;;;;5011778;28;20057;-81
2023/05/14 06:39:04;;;;;;;17.20;9.88;;;10.50;99.90;;;;;;5007940;28;20057;-81
2023/05/14 06:41:30;;;;;;;15.52;9.00;;;10.60;99.90;;;;;;5008906;28;20052;-81
2023/05/14 06:43:56;;;;;;;18.73;9.05;;;10.60;99.90;;;;;;4995011;28;20029;-81
2023/05/14 06:46:22;;;;;;;20.63;11.98;;;10.60;99.90;;;;;;5014691;28;20034;-81
2023/05/14 06:48:47;;;;;;;16.60;8.75;;;10.50;99.90;;;;;;5007454;28;20042;-82
2023/05/14 06:51:13;;;;;;;15.77;10.13;;;10.50;99.90;;;;;;5012114;28;20030;-81
2023/05/14 06:53:39;;;;;;;15.75;9.80;;;10.50;99.90;;;;;;5011460;28;20038;-81
2023/05/14 06:56:05;;;;;;;14.55;9.15;;;10.50;99.90;;;;;;5013372;28;20034;-81
2023/05/14 06:58:31;;;;;;;18.73;9.93;;;10.50;99.90;;;;;;5011004;28;20121;-81
2023/05/14 07:00:59;;;;;;;16.05;8.50;;;10.50;99.90;;;;;;5007990;28;20041;-82
2023/05/14 07:03:25;;;;;;;;;;;10.50;99.90;;;;;;5009525;28;20421;-81
2023/05/14 07:05:50;;;;;;;15.68;9.02;;;10.60;99.90;;;;;;5014113;28;19963;-81
2023/05/14 07:08:19;;;;;;;15.85;8.73;;;10.50;99.90;;;;;;5011637;28;20025;-84
2023/05/14 07:10:45;;;;;;;14.65;8.82;;;10.50;99.90;;;;;;5012908;28;20061;-81
2023/05/14 07:13:13;;;;;;;13.85;8.50;;;10.60;99.90;;;;;;5010052;28;20026;-82
2023/05/14 07:15:39;;;;;;;14.02;8.88;;;10.50;99.90;;;;;;5012562;28;20034;-82
2023/05/14 07:18:04;;;;;;;11.93;8.05;;;10.60;99.90;;;;;;5010128;28;20092;-81
2023/05/14 07:20:30;;;;;;;14.43;8.93;;;10.60;99.90;;;;;;5008967;28;20117;-81
2023/05/14 07:22:55;;;;;;;14.25;8.70;;;10.60;99.90;;;;;;5008898;28;20058;-81
2023/05/14 07:25:21;;;;;;;12.95;8.60;;;10.60;99.90;;;;;;5009518;28;20044;-81
2023/05/14 07:27:47;;;;;;;15.45;8.80;;;10.60;99.90;;;;;;5002533;28;20034;-81
2023/05/14 07:30:14;;;;;;;14.27;8.30;;;10.60;99.90;;;;;;4991812;28;20044;-82
2023/05/14 07:32:39;;;;;;;12.75;8.80;;;10.60;99.90;;;;;;5008681;28;20056;-82
2023/05/14 07:35:05;;;;;;;15.20;8.80;;;10.60;99.90;;;;;;5007526;28;21128;-83
2023/05/14 07:37:31;;;;;;;15.32;9.30;;;10.60;99.90;;;;;;5008086;28;20034;-81
2023/05/14 07:39:57;;;;;;;15.48;9.20;;;10.70;99.90;;;;;;5012525;28;20033;-81
2023/05/14 07:42:23;;;;;;;14.60;9.20;;;10.60;99.90;;;;;;5012412;28;20030;-80
2023/05/14 07:44:50;;;;;;;15.52;9.13;;;10.60;99.90;;;;;;5012761;28;20040;-79
2023/05/14 07:47:15;;;;;;;15.73;9.77;;;10.50;99.90;;;;;;5007778;28;20047;-80
2023/05/14 07:49:41;;;;;;;13.82;8.57;;;10.50;99.90;;;;;;5009134;28;20041;-80
2023/05/14 07:52:06;;;;;;;16.92;9.55;;;10.50;99.90;;;;;;5011152;28;20076;-80
2023/05/14 07:54:35;;;;;;;15.10;9.07;;;10.50;99.90;;;;;;5010871;28;20026;-80
2023/05/14 07:57:00;;;;;;;14.93;8.57;;;10.50;99.90;;;;;;5012948;28;20041;-80
2023/05/14 07:59:26;;;;;;;15.43;10.02;;;10.50;99.90;;;;;;5011215;28;20075;-80
2023/05/14 08:01:52;;;;;;;15.90;9.73;;;10.50;99.90;;;;;;5012011;28;20133;-80
2023/05/14 08:04:18;;;;;;;13.55;8.50;;;10.40;99.90;;;;;;5013032;28;20159;-80
2023/05/14 08:06:46;;;;;;;19.90;11.07;;;10.40;99.90;;;;;;4997592;28;20053;-81
2023/05/14 08:09:12;;;;;;;16.15;9.75;;;10.50;99.90;;;;;;5015053;28;20038;-81
2023/05/14 08:11:38;;;;;;;15.48;9.48;;;10.50;99.90;;;;;;4980682;28;20044;-81
2023/05/14 08:14:06;;;;;;;15.38;9.23;;;10.50;99.90;;;;;;5011254;28;20120;-80
2023/05/14 08:16:32;;;;;;;14.75;8.90;;;10.60;99.90;;;;;;5014020;28;20040;-81
2023/05/14 08:19:00;;;;;;;14.98;9.18;;;10.60;99.90;;;;;;5013653;28;20038;-81
2023/05/14 08:21:26;;;;;;;13.30;8.50;;;10.60;99.90;;;;;;5010447;28;20034;-81
2023/05/14 08:23:52;;;;;;;12.93;7.95;;;10.60;99.90;;;;;;5013985;28;20571;-82
2023/05/14 08:26:18;;;;;;;14.48;9.30;;;10.70;99.90;;;;;;4999024;28;20042;-81
2023/05/14 08:28:44;;;;;;;15.13;9.13;;;10.70;99.90;;;;;;5012029;28;20034;-81
2023/05/14 08:31:10;;;;;;;12.65;8.80;;;10.60;99.90;;;;;;5008937;28;20576;-80
2023/05/14 08:33:39;;;;;;;13.75;8.55;;;10.70;99.90;;;;;;5011744;28;20544;-81
2023/05/14 08:36:06;;;;;;;12.10;8.43;;;10.70;99.90;;;;;;5013833;28;20034;-80
2023/05/14 08:38:32;;;;;;;13.02;8.20;;;10.70;99.90;;;;;;5013373;28;20030;-80
2023/05/14 08:40:59;;;;;;;13.27;8.10;;;10.70;99.90;;;;;;5013945;28;20052;-81
2023/05/14 08:43:55;;;;;;;12.65;8.02;;;10.90;99.90;;;;;;5005539;28;20042;-81
2023/05/14 08:46:26;;;;;;;11.20;7.05;;;11.00;99.90;;;;;;5014138;28;20034;-81
2023/05/14 08:48:59;;;;;;;11.32;7.40;;;10.90;99.90;;;;;;5009027;28;20053;-83
2023/05/14 08:51:26;;;;;;;11.30;7.07;;;11.00;99.90;;;;;;5013395;28;20038;-80
2023/05/14 08:53:56;;;;;;;8.65;6.88;;;11.00;99.90;;;;;;5008564;28;20085;-81
2023/05/14 08:56:24;;;;;;;11.65;7.85;;;11.10;99.90;;;;;;5010286;28;20034;-82
2023/05/14 08:58:50;;;;;;;14.02;8.13;;;11.20;99.90;;;;;;5009292;28;20101;-81
2023/05/14 09:01:17;;;;;;;10.20;6.95;;;11.40;99.90;;;;;;5012549;28;20025;-81
2023/05/14 09:03:44;;;;;;;9.50;7.30;;;11.50;99.90;;;;;;4994637;28;20492;-81
2023/05/14 09:06:14;;;;;;;8.02;6.20;;;11.60;99.90;;;;;;5013972;28;20117;-80
2023/05/14 09:08:40;;;;;;;7.25;5.90;;;11.90;99.90;;;;;;5012058;28;20046;-81
2023/05/14 09:11:05;;;;;;;10.93;6.75;;;12.30;99.90;;;;;;5010887;28;20035;-83
2023/05/14 09:13:38;;;;;;;7.10;5.45;;;12.50;99.90;;;;;;5010541;28;20034;-83
2023/05/14 09:16:07;;;;;;;6.75;5.55;;;12.50;99.90;;;;;;4995472;28;20042;-84
2023/05/14 09:18:35;;;;;;;8.65;6.25;;;12.50;99.90;;;;;;5011258;28;20098;-81
2023/05/14 09:21:00;;;;;;;8.77;6.00;;;12.30;99.90;;;;;;5011787;28;20478;-81
2023/05/14 09:23:30;;;;;;;7.60;6.07;;;12.20;99.90;;;;;;5014685;28;20042;-80
2023/05/14 09:25:56;;;;;;;7.78;5.78;;;12.30;99.90;;;;;;4994290;28;20121;-81
2023/05/14 09:28:23;;;;;;;8.05;5.40;;;12.30;99.90;;;;;;5017623;28;20052;-80
2023/05/14 09:30:51;;;;;;;9.45;6.20;;;12.40;99.90;;;;;;5011038;28;20053;-80
2023/05/14 09:33:27;;;;;;;8.70;5.95;;;12.50;99.90;;;;;;5014399;28;20101;-81
2023/05/14 09:35:59;;;;;;;10.73;5.97;;;12.50;99.90;;;;;;5014464;28;20030;-81
2023/05/14 09:38:32;;;;;;;5.88;5.20;;;12.70;99.90;;;;;;5012992;28;20030;-80
2023/05/14 09:40:59;;;;;;;6.22;4.75;;;12.90;99.90;;;;;;5012995;28;20029;-81
2023/05/14 09:43:25;;;;;;;7.22;5.65;;;13.10;99.90;;;;;;5011558;28;20042;-80
2023/05/14 09:45:51;;;;;;;5.93;4.95;;;13.10;99.90;;;;;;5008522;28;20046;-80
2023/05/14 09:48:17;;;;;;;5.20;4.15;;;13.00;99.90;;;;;;5013011;28;20084;-80
2023/05/14 09:50:44;;;;;;;6.85;4.90;;;12.90;99.90;;;;;;5011951;28;20054;-81
2023/05/14 09:53:10;;;;;;;6.70;4.80;;;13.00;99.90;;;;;;5008940;28;20575;-81
2023/05/14 09:55:36;;;;;;;6.25;4.65;;;13.00;99.90;;;;;;5009044;28;20029;-83
2023/05/14 09:58:03;;;;;;;5.22;4.72;;;12.90;99.90;;;;;;4992813;28;20359;-80
2023/05/14 10:00:30;;;;;;;6.88;5.20;;;13.00;99.90;;;;;;5014375;28;20805;-81
2023/05/14 10:02:57;;;;;;;6.15;5.55;;;12.90;99.90;;;;;;5013477;28;20048;-81
2023/05/14 10:05:23;;;;;;;7.35;5.60;;;12.80;99.90;;;;;;5004971;28;20121;-80
2023/05/14 10:07:52;;;;;;;6.13;5.20;;;12.70;99.90;;;;;;5008888;28;20041;-80
2023/05/14 10:10:19;;;;;;;6.55;5.20;;;12.60;99.90;;;;;;5010061;28;20082;-81
2023/05/14 10:12:51;;;;;;;6.53;4.78;;;12.50;99.90;;;;;;5011697;28;21008;-80
2023/05/14 10:15:21;;;;;;;5.68;5.03;;;12.50;99.90;;;;;;5011902;28;20084;-80
2023/05/14 10:17:53;;;;;;;5.95;5.10;;;12.50;99.90;;;;;;5010525;28;20033;-80
2023/05/14 10:20:21;;;;;;;5.93;5.30;;;12.50;99.90;;;;;;4996915;28;20062;-80
2023/05/14 10:22:47;;;;;;;6.75;5.32;;;12.60;99.90;;;;;;5009144;28;20006;-79
2023/05/14 10:25:13;;;;;;;6.03;4.60;;;12.80;99.90;;;;;;5011119;28;20117;-79
2023/05/14 10:27:40;;;;;;;5.47;4.50;;;12.90;99.90;;;;;;5013153;28;20056;-80
2023/05/14 10:30:11;;;;;;;6.15;5.13;;;12.90;99.90;;;;;;5011160;28;20029;-79
2023/05/14 10:32:37;;;;;;;6.20;5.47;;;12.80;99.90;;;;;;5010566;28;20038;-80
2023/05/14 10:35:19;;;;;;;6.82;5.10;;;12.70;99.90;;;;;;5010282;28;20494;-81
2023/05/14 10:37:45;;;;;;;5.80;5.13;;;12.70;99.90;;;;;;5008991;28;20030;-81
2023/05/14 10:40:12;;;;;;;6.00;4.82;;;12.60;99.90;;;;;;5008482;28;20045;-80
2023/05/14 10:42:42;;;;;;;8.32;5.05;;;12.60;99.90;;;;;;5012295;28;20048;-81
2023/05/14 10:45:10;;;;;;;6.50;5.32;;;12.70;99.90;;;;;;5011899;28;20045;-81
2023/05/14 10:47:38;;;;;;;12.18;5.70;;;12.60;99.90;;;;;;5011789;28;20041;-80
2023/05/14 10:50:06;;;;;;;5.57;4.87;;;12.70;99.90;;;;;;5010993;28;20519;-80
2023/05/14 10:52:33;;;;;;;6.05;5.07;;;12.70;99.90;;;;;;5015190;28;20296;-81
2023/05/14 10:55:07;;;;;;;5.70;4.78;;;12.70;99.90;;;;;;5011335;28;20462;-80
2023/05/14 10:57:36;;;;;;;5.22;4.15;;;12.80;99.90;;;;;;5008410;28;20083;-80
2023/05/14 11:00:05;;;;;;;5.82;4.57;;;12.90;99.90;;;;;;5013036;28;20040;-81
2023/05/14 11:02:34;;;;;;;5.18;4.65;;;13.00;99.90;;;;;;5010437;28;20232;-81
2023/05/14 11:05:03;;;;;;;;;;;13.00;99.90;;;;;;5009917;28;20213;-81
2023/05/14 11:07:33;;;;;;;6.43;4.55;;;13.10;99.90;;;;;;5010987;28;19913;-81
2023/05/14 11:10:10;;;;;;;5.60;4.30;;;13.20;99.90;;;;;;5013153;28;20042;-80
2023/05/14 11:12:38;;;;;;;4.70;4.15;;;13.20;99.90;;;;;;5009293;28;20088;-80
2023/05/14 11:15:09;;;;;;;5.32;4.38;;;13.20;99.90;;;;;;5015048;28;20026;-81
2023/05/14 11:17:36;;;;;;;5.07;4.05;;;13.20;99.90;;;;;;4991232;28;20038;-80
2023/05/14 11:20:04;;;;;;;4.68;4.15;;;13.10;99.90;;;;;;5012180;28;20026;-81
2023/05/14 11:22:30;;;;;;;4.70;4.25;;;13.30;99.90;;;;;;5011121;28;20061;-80
2023/05/14 11:24:56;;;;;;;4.20;3.70;;;13.30;99.90;;;;;;5010283;28;20045;-81
2023/05/14 11:27:23;;;;;;;4.15;3.70;;;13.40;99.90;;;;;;5008931;28;20030;-80
2023/05/14 11:29:49;;;;;;;4.15;3.75;;;13.40;99.90;;;;;;5014465;28;20096;-80
2023/05/14 11:32:16;;;;;;;5.28;4.57;;;13.50;99.90;;;;;;5017596;28;20725;-80
2023/05/14 11:34:45;;;;;;;4.70;4.15;;;13.40;99.90;;;;;;5014138;28;20515;-80
2023/05/14 11:37:13;;;;;;;6.30;4.72;;;13.40;99.90;;;;;;5016559;28;20788;-80
2023/05/14 11:39:49;;;;;;;4.20;3.80;;;13.60;99.90;;;;;;5017248;28;20083;-80
2023/05/14 11:42:17;;;;;;;4.03;3.63;;;13.60;99.90;;;;;;5015758;28;20026;-80
2023/05/14 11:44:44;;;;;;;4.38;3.97;;;13.70;99.90;;;;;;5016166;28;20041;-79
2023/05/14 11:47:10;;;;;;;4.45;3.95;;;13.70;99.90;;;;;;5013771;28;20034;-81
2023/05/14 11:49:36;;;;;;;5.80;3.70;;;13.80;99.90;;;;;;5014139;28;20458;-81
2023/05/14 11:52:04;;;;;;;5.95;4.38;;;13.70;99.90;;;;;;5013189;28;20026;-82
2023/05/14 11:54:31;;;;;;;4.82;3.83;;;13.80;99.90;;;;;;5016431;28;20018;-81
2023/05/14 11:56:59;;;;;;;4.05;3.45;;;13.90;99.90;;;;;;5014982;28;20052;-82
2023/05/14 11:59:30;;;;;;;4.53;3.90;;;14.10;99.90;;;;;;5015546;28;20043;-81
2023/05/14 12:01:56;;;;;;;3.63;3.33;;;14.20;99.90;;;;;;5016027;28;20128;-81
2023/05/14 12:04:22;;;;;;;4.25;3.67;;;14.30;99.90;;;;;;5014818;28;20038;-81
2023/05/14 12:06:48;;;;;;;3.58;2.83;;;14.30;99.90;;;;;;5013504;28;20045;-82
2023/05/14 12:09:21;;;;;;;4.20;2.92;;;14.30;99.90;;;;;;5014394;28;20034;-82
2023/05/14 12:11:49;;;;;;;3.85;3.05;;;14.50;99.90;;;;;;5021563;28;20065;-82
2023/05/14 12:14:24;;;;;;;3.75;3.30;;;14.80;99.90;;;;;;5018586;28;20030;-81
2023/05/14 12:16:50;;;;;;;2.95;2.63;;;15.00;99.90;;;;;;5016032;28;20060;-80
2023/05/14 12:19:18;;;;;;;3.10;2.80;;;15.20;99.90;;;;;;5019558;28;20565;-80
2023/05/14 12:21:46;;;;;;;3.42;2.90;;;15.30;99.90;;;;;;5003068;28;20452;-80
2023/05/14 12:24:14;;;;;;;3.08;2.58;;;15.40;99.90;;;;;;5016673;28;20057;-80
2023/05/14 12:26:45;;;;;;;3.72;2.67;;;15.20;99.90;;;;;;5008501;28;20041;-81
2023/05/14 12:29:13;;;;;;;3.03;2.72;;;15.30;99.90;;;;;;5014880;28;20045;-81
2023/05/14 12:31:46;;;;;;;2.95;2.75;;;15.50;99.90;;;;;;5015975;28;20057;-81
2023/05/14 12:34:11;;;;;;;3.42;3.13;;;15.40;99.90;;;;;;5015190;28;20041;-80
2023/05/14 12:36:37;;;;;;;3.05;2.78;;;15.10;99.90;;;;;;5015090;28;20038;-81
2023/05/14 12:39:04;;;;;;;3.30;2.92;;;15.20;99.90;;;;;;4996035;28;20048;-81